Pilot Knob, Texas
Current Conditions -  °F | °C
As of 2:53 AM on Thursday 18 Dec 2014 (Local Time) from KAUS Reporting Station
Drizzle Drizzle  
Wind Chill: 45°   Ceiling: 300
Heat Index: 49°   Visibility: 1.5mi
Dew Point: 48°   Wind: 8mph
Humidity: 97%   Direction: 10°N
Pressure: 30.1"   Gusts: NA
Location:  30.1791°N, 97.7294°W
Report Text: KAUS 180853Z 01007KT 1 1/2SM -DZ BR OVC003 09/09 A3010 RMK AO2 SLP194 P0000 60000 T00940089 58006
Loading
Personal Weather Stations






























Interactive Weather Map New forecast layout! Learn more

10-Day Weather Forecast

Advertisements
Track Severe Weather on mobile